createdAt,value
2023-02-11T00:01:47.103Z,80.47
2023-02-11T00:04:13.920Z,90.03
2023-02-11T00:06:40.719Z,78.32
2023-02-11T00:09:07.728Z,82.40
2023-02-11T00:11:34.815Z,82.75
2023-02-11T00:14:05.493Z,85.77
2023-02-11T00:16:32.224Z,72.32
2023-02-11T00:18:59.711Z,76.63
2023-02-11T00:21:27.319Z,75.47
2023-02-11T00:23:54.312Z,70.60
2023-02-11T00:26:23.524Z,68.60
2023-02-11T00:28:51.495Z,76.43
2023-02-11T00:31:21.713Z,81.88
2023-02-11T00:33:48.947Z,86.22
2023-02-11T00:36:17.800Z,92.53
2023-02-11T00:38:45.572Z,87.20
2023-02-11T00:41:12.660Z,88.00
2023-02-11T00:43:39.803Z,85.75
2023-02-11T00:46:07.080Z,95.32
2023-02-11T00:48:35.650Z,78.93
2023-02-11T00:51:03.194Z,89.80
2023-02-11T00:53:29.991Z,79.57
2023-02-11T00:55:56.683Z,86.63
2023-02-11T00:58:23.370Z,75.18
2023-02-11T01:00:50.101Z,84.75
2023-02-11T01:03:16.807Z,89.90
2023-02-11T01:05:44.951Z,87.53
2023-02-11T01:08:11.748Z,77.65
2023-02-11T01:10:38.508Z,76.07
2023-02-11T01:13:05.213Z,80.50
2023-02-11T01:15:32.489Z,63.13
2023-02-11T01:17:59.464Z,72.68
2023-02-11T01:20:31.010Z,70.97
2023-02-11T01:23:01.666Z,79.30
2023-02-11T01:25:28.434Z,75.35
2023-02-11T01:27:55.220Z,67.17
2023-02-11T01:30:21.978Z,68.13
2023-02-11T01:32:48.704Z,66.47
2023-02-11T01:35:15.401Z,65.05
2023-02-11T01:37:42.146Z,66.78
2023-02-11T01:40:13.238Z,69.50
2023-02-11T01:42:39.974Z,59.92
2023-02-11T01:45:51.740Z,65.03
2023-02-11T01:48:22.346Z,66.63
2023-02-11T01:50:52.889Z,76.43
2023-02-11T01:53:20.180Z,66.50
2023-02-11T01:55:48.723Z,62.65
2023-02-11T01:58:15.643Z,66.25
2023-02-11T02:00:42.472Z,69.63
2023-02-11T02:03:12.976Z,64.22
2023-02-11T02:05:45.243Z,65.27
2023-02-11T02:08:17.540Z,63.22
2023-02-11T02:10:46.520Z,62.78
2023-02-11T02:13:15.035Z,62.22
2023-02-11T02:15:46.534Z,68.65
2023-02-11T02:18:28.977Z,61.27
2023-02-11T02:21:22.287Z,61.35
2023-02-11T02:24:12.546Z,64.60
2023-02-11T02:27:12.840Z,66.93
2023-02-11T02:30:19.295Z,67.93
2023-02-11T02:32:58.440Z,67.57
2023-02-11T02:35:31.139Z,66.53
2023-02-11T02:38:03.059Z,71.97
2023-02-11T02:40:34.904Z,59.05
2023-02-11T02:43:02.830Z,66.82
2023-02-11T02:45:29.673Z,68.80
2023-02-11T02:47:58.354Z,66.20
2023-02-11T02:50:30.417Z,63.33
2023-02-11T02:53:11.778Z,59.03
2023-02-11T02:55:59.530Z,59.03
2023-02-11T02:58:55.334Z,64.83
2023-02-11T03:01:31.290Z,54.03
2023-02-11T03:04:06.814Z,62.20
2023-02-11T03:06:45.814Z,58.95
2023-02-11T03:09:16.218Z,61.10
2023-02-11T03:11:42.943Z,59.27
2023-02-11T03:14:15.705Z,62.35
2023-02-11T03:16:44.546Z,63.35
2023-02-11T03:19:15.453Z,53.38
2023-02-11T03:21:44.284Z,56.22
2023-02-11T03:24:15.460Z,60.53
2023-02-11T03:26:46.496Z,54.85
2023-02-11T03:29:18.230Z,54.22
2023-02-11T03:31:54.585Z,59.95
2023-02-11T03:34:29.617Z,54.10
2023-02-11T03:37:01.818Z,56.80
2023-02-11T03:39:33.964Z,52.63
2023-02-11T03:42:02.810Z,50.70
2023-02-11T03:44:34.397Z,49.22
2023-02-11T03:47:03.425Z,49.30
2023-02-11T03:49:33.549Z,54.70
2023-02-11T03:52:03.061Z,59.78
2023-02-11T03:54:30.928Z,59.40
2023-02-11T03:57:00.231Z,59.35
2023-02-11T03:59:27.884Z,56.55
2023-02-11T04:01:55.001Z,58.40
2023-02-11T04:04:21.867Z,52.25
2023-02-11T04:06:49.999Z,62.35
2023-02-11T04:09:17.293Z,58.92
2023-02-11T04:11:44.092Z,53.88
2023-02-11T04:14:10.777Z,58.20
2023-02-11T04:16:37.590Z,56.78
2023-02-11T04:19:04.318Z,62.97
2023-02-11T04:21:31.023Z,59.10
2023-02-11T04:23:59.108Z,53.17
2023-02-11T04:26:25.792Z,55.23
2023-02-11T04:28:52.536Z,57.70
2023-02-11T04:31:19.392Z,55.70
2023-02-11T04:33:46.314Z,55.45
2023-02-11T04:36:13.461Z,59.42
2023-02-11T04:38:40.182Z,53.13
2023-02-11T04:41:08.428Z,53.03
2023-02-11T04:43:35.164Z,53.47
2023-02-11T04:46:01.960Z,56.60
2023-02-11T04:48:28.658Z,55.08
2023-02-11T04:50:55.421Z,51.43
2023-02-11T04:53:22.099Z,49.45
2023-02-11T04:55:49.747Z,56.97
2023-02-11T04:58:18.486Z,48.08
2023-02-11T05:00:45.423Z,57.00
2023-02-11T05:03:12.626Z,55.40
2023-02-11T05:05:39.655Z,60.25
2023-02-11T05:08:06.604Z,55.95
2023-02-11T05:10:33.504Z,49.83
2023-02-11T05:13:00.352Z,57.90
2023-02-11T05:15:28.852Z,59.53
2023-02-11T05:17:55.985Z,58.72
2023-02-11T05:20:22.714Z,63.58
2023-02-11T05:22:49.380Z,53.40
2023-02-11T05:25:16.156Z,60.50
2023-02-11T05:27:42.842Z,54.97
2023-02-11T05:30:11.334Z,51.20
2023-02-11T05:32:39.391Z,55.13
2023-02-11T05:35:06.670Z,60.35
2023-02-11T05:37:33.436Z,52.47
2023-02-11T05:40:00.213Z,59.27
2023-02-11T05:42:27.042Z,56.67
2023-02-11T05:44:53.733Z,52.40
2023-02-11T05:47:20.478Z,64.10
2023-02-11T05:49:48.619Z,51.40
2023-02-11T05:52:15.327Z,52.90
2023-02-11T05:54:42.258Z,56.75
2023-02-11T05:57:08.956Z,55.40
2023-02-11T05:59:35.671Z,55.20
2023-02-11T06:02:02.605Z,60.80
2023-02-11T06:04:29.330Z,57.37
2023-02-11T06:06:57.375Z,55.60
2023-02-11T06:09:24.144Z,54.72
2023-02-11T06:11:50.950Z,50.60
2023-02-11T06:14:17.705Z,58.92
2023-02-11T06:16:44.403Z,54.10
2023-02-11T06:19:11.189Z,56.22
2023-02-11T06:21:43.866Z,51.42
2023-02-11T06:24:12.707Z,56.22
2023-02-11T06:26:39.447Z,53.15
2023-02-11T06:29:06.520Z,47.50
2023-02-11T06:31:33.420Z,53.22
2023-02-11T06:34:01.300Z,51.25
2023-02-11T06:36:27.974Z,48.47
2023-02-11T06:38:55.517Z,51.10
2023-02-11T06:41:23.565Z,50.90
2023-02-11T06:43:50.276Z,50.83
2023-02-11T06:46:17.088Z,54.03
2023-02-11T06:48:45.048Z,58.92
2023-02-11T06:51:13.846Z,49.92
2023-02-11T06:53:42.516Z,52.63
2023-02-11T06:56:11.769Z,53.47
2023-02-11T06:58:39.881Z,49.38
2023-02-11T07:01:08.348Z,56.05
2023-02-11T07:03:35.977Z,49.20
2023-02-11T07:06:02.695Z,44.77
2023-02-11T07:08:29.466Z,48.00
2023-02-11T07:10:56.178Z,48.67
2023-02-11T07:13:22.877Z,56.80
2023-02-11T07:15:51.260Z,48.15
2023-02-11T07:18:18.290Z,48.27
2023-02-11T07:20:45.450Z,46.90
2023-02-11T07:23:12.165Z,49.85
2023-02-11T07:25:38.881Z,52.15
2023-02-11T07:28:05.768Z,53.25
2023-02-11T07:30:32.484Z,44.83
2023-02-11T07:33:00.546Z,46.08
2023-02-11T07:35:27.273Z,49.33
2023-02-11T07:37:54.020Z,48.38
2023-02-11T07:40:20.955Z,51.17
2023-02-11T07:42:47.651Z,45.40
2023-02-11T07:45:14.494Z,47.47
2023-02-11T07:47:41.203Z,52.47
2023-02-11T07:50:10.020Z,45.35
2023-02-11T07:52:36.749Z,48.85
2023-02-11T07:55:04.944Z,47.80
2023-02-11T07:57:31.809Z,51.88
2023-02-11T07:59:58.528Z,47.25
2023-02-11T08:02:25.321Z,43.17
2023-02-11T08:04:52.077Z,49.70
2023-02-11T08:07:20.236Z,45.90
2023-02-11T08:09:46.950Z,42.85
2023-02-11T08:12:13.675Z,48.30
2023-02-11T08:14:40.348Z,55.95
2023-02-11T08:17:07.160Z,54.92
2023-02-11T08:19:35.231Z,55.30
2023-02-11T08:22:02.083Z,48.08
2023-02-11T08:24:30.208Z,46.45
2023-02-11T08:26:56.914Z,45.75
2023-02-11T08:29:23.717Z,47.50
2023-02-11T08:31:50.502Z,46.17
2023-02-11T08:34:17.300Z,42.10
2023-02-11T08:36:43.971Z,58.03
2023-02-11T08:39:20.061Z,49.17
2023-02-11T08:41:50.542Z,44.88
2023-02-11T08:44:17.815Z,48.23
2023-02-11T08:46:44.532Z,43.60
2023-02-11T08:49:11.244Z,41.50
2023-02-11T08:51:37.999Z,44.15
2023-02-11T08:54:04.762Z,39.88
2023-02-11T08:56:31.494Z,40.70
2023-02-11T08:58:59.644Z,43.38
2023-02-11T09:01:28.888Z,44.63
2023-02-11T09:03:56.708Z,49.28
2023-02-11T09:06:25.035Z,44.50
2023-02-11T09:08:53.046Z,43.23
2023-02-11T09:11:21.951Z,44.35
2023-02-11T09:13:48.686Z,44.70
2023-02-11T09:16:19.362Z,39.80
2023-02-11T09:18:46.283Z,40.30
2023-02-11T09:21:13.726Z,41.77
2023-02-11T09:23:40.541Z,40.88
2023-02-11T09:26:09.319Z,48.53
2023-02-11T09:28:36.494Z,43.42
2023-02-11T09:31:05.930Z,40.35
2023-02-11T09:33:34.302Z,43.83
2023-02-11T09:36:01.352Z,38.33
2023-02-11T09:38:28.416Z,39.65
2023-02-11T09:40:55.176Z,38.55
2023-02-11T09:43:24.497Z,38.40
2023-02-11T09:45:54.889Z,42.13
2023-02-11T09:48:22.886Z,41.72
2023-02-11T09:50:54.878Z,44.92
2023-02-11T09:53:24.833Z,44.60
2023-02-11T09:55:53.349Z,50.75
2023-02-11T09:58:25.952Z,42.00
2023-02-11T10:01:02.396Z,42.33
2023-02-11T10:04:00.439Z,40.05
2023-02-11T10:06:44.733Z,39.30
2023-02-11T10:09:39.011Z,40.97
2023-02-11T10:12:21.194Z,44.80
2023-02-11T10:15:06.629Z,43.17
2023-02-11T10:17:45.495Z,42.65
2023-02-11T10:20:23.224Z,39.20
2023-02-11T10:22:54.638Z,44.28
2023-02-11T10:25:24.751Z,41.97
2023-02-11T10:27:53.444Z,39.45
2023-02-11T10:30:25.040Z,57.70
2023-02-11T10:32:57.141Z,52.50
2023-02-11T10:35:24.408Z,44.88
2023-02-11T10:37:53.181Z,45.60
2023-02-11T10:40:23.548Z,42.30
2023-02-11T10:42:55.415Z,41.42
2023-02-11T10:45:28.140Z,37.28
2023-02-11T10:47:55.069Z,39.30
2023-02-11T10:50:26.374Z,34.87
2023-02-11T10:53:12.413Z,35.47
2023-02-11T10:55:48.733Z,35.92
2023-02-11T10:58:24.691Z,35.95
2023-02-11T11:00:53.975Z,38.85
2023-02-11T11:03:23.057Z,37.90
2023-02-11T11:05:51.649Z,36.65
2023-02-11T11:08:20.111Z,38.20
2023-02-11T11:10:49.643Z,34.15
2023-02-11T11:13:31.816Z,35.20
2023-02-11T11:16:21.320Z,34.77
2023-02-11T11:18:50.008Z,33.97
2023-02-11T11:21:21.279Z,35.90
2023-02-11T11:23:55.638Z,33.40
2023-02-11T11:26:22.991Z,33.72
2023-02-11T11:28:58.953Z,34.87
2023-02-11T11:31:30.303Z,38.53
2023-02-11T11:33:59.253Z,31.25
2023-02-11T11:36:35.170Z,37.40
2023-02-11T11:39:17.426Z,34.15
2023-02-11T11:41:51.360Z,36.13
2023-02-11T11:44:25.090Z,39.08
2023-02-11T11:47:07.263Z,34.78
2023-02-11T11:49:39.436Z,35.92
2023-02-11T11:52:19.167Z,36.53
2023-02-11T11:54:53.578Z,32.27
2023-02-11T11:57:25.850Z,34.28
2023-02-11T11:59:52.730Z,34.05
2023-02-11T12:02:48.065Z,32.67
2023-02-11T12:05:23.641Z,35.05
2023-02-11T12:08:03.824Z,35.90
2023-02-11T12:11:03.410Z,36.60
2023-02-11T12:13:45.735Z,35.25
2023-02-11T12:16:23.678Z,36.75
2023-02-11T12:19:10.639Z,34.35
2023-02-11T12:21:46.963Z,37.63
2023-02-11T12:24:30.217Z,38.38
2023-02-11T12:27:05.711Z,36.58
2023-02-11T12:29:43.131Z,32.40
2023-02-11T12:32:26.536Z,37.15
2023-02-11T12:35:11.914Z,36.67
2023-02-11T12:37:55.540Z,37.58
2023-02-11T12:40:31.186Z,35.15
2023-02-11T12:43:10.689Z,38.00
2023-02-11T12:45:46.328Z,37.45
2023-02-11T12:48:29.421Z,37.73
2023-02-11T12:51:01.848Z,44.50
2023-02-11T12:54:00.955Z,37.22
2023-02-11T12:56:32.552Z,35.55
2023-02-11T12:59:05.237Z,33.10
2023-02-11T13:01:35.510Z,36.00
2023-02-11T13:04:11.660Z,40.00
2023-02-11T13:06:43.632Z,31.00
2023-02-11T13:09:16.588Z,36.03
2023-02-11T13:11:47.042Z,37.13
2023-02-11T13:14:24.236Z,33.77
2023-02-11T13:16:51.403Z,33.78
2023-02-11T13:19:25.849Z,34.40
2023-02-11T13:22:04.118Z,33.47
2023-02-11T13:24:39.564Z,34.22
2023-02-11T13:27:15.145Z,29.43
2023-02-11T13:30:08.264Z,34.72
2023-02-11T13:33:06.571Z,30.50
2023-02-11T13:35:34.848Z,30.48
2023-02-11T13:38:03.893Z,34.60
2023-02-11T13:40:33.355Z,32.67
2023-02-11T13:43:03.178Z,35.72
2023-02-11T13:45:36.156Z,35.08
2023-02-11T13:48:05.090Z,35.35
2023-02-11T13:50:37.285Z,36.35
2023-02-11T13:53:05.883Z,37.97
2023-02-11T13:55:33.073Z,33.15
2023-02-11T13:58:36.942Z,34.95
2023-02-11T14:01:05.373Z,32.47
2023-02-11T14:03:38.001Z,36.58
2023-02-11T14:06:13.122Z,36.07
2023-02-11T14:09:00.395Z,40.30
2023-02-11T14:11:45.701Z,34.38
2023-02-11T14:14:20.052Z,33.95
2023-02-11T14:17:23.349Z,31.52
2023-02-11T14:19:51.738Z,39.33
2023-02-11T14:22:23.392Z,36.17
2023-02-11T14:24:53.844Z,34.80
2023-02-11T14:27:47.234Z,37.78
2023-02-11T14:30:39.534Z,38.13
2023-02-11T14:33:38.993Z,37.40
2023-02-11T14:36:18.931Z,37.30
2023-02-11T14:39:00.147Z,37.45
2023-02-11T14:41:29.521Z,40.67
2023-02-11T14:43:59.441Z,43.08
2023-02-11T14:46:27.813Z,39.87
2023-02-11T14:48:58.176Z,40.22
2023-02-11T14:51:29.487Z,41.92
2023-02-11T14:53:59.355Z,41.60
2023-02-11T14:56:28.103Z,37.53
2023-02-11T14:58:55.504Z,37.90
2023-02-11T15:01:28.716Z,36.63
2023-02-11T15:03:55.589Z,38.38
2023-02-11T15:06:24.526Z,34.92
2023-02-11T15:08:54.593Z,32.33
2023-02-11T15:11:24.348Z,42.87
2023-02-11T15:13:55.015Z,49.10
2023-02-11T15:16:25.381Z,43.42
2023-02-11T15:18:54.678Z,35.80
2023-02-11T15:21:23.103Z,38.25
2023-02-11T15:23:59.487Z,35.43
2023-02-11T15:26:26.352Z,36.00
2023-02-11T15:28:53.199Z,37.42
2023-02-11T15:31:22.344Z,41.65
2023-02-11T15:33:49.772Z,40.17
2023-02-11T15:36:18.108Z,35.73
2023-02-11T15:38:44.870Z,35.25
2023-02-11T15:41:37.419Z,34.65
2023-02-11T15:44:04.425Z,36.30
2023-02-11T15:46:37.653Z,29.80
2023-02-11T15:49:05.405Z,34.90
2023-02-11T15:51:34.559Z,39.30
2023-02-11T15:54:03.792Z,44.63
2023-02-11T15:56:35.116Z,42.47
2023-02-11T15:59:11.132Z,41.38
2023-02-11T16:01:37.894Z,54.40
2023-02-11T16:04:05.180Z,54.55
2023-02-11T16:06:37.241Z,46.72
2023-02-11T16:09:06.390Z,46.78
2023-02-11T16:11:35.081Z,51.00
2023-02-11T16:14:21.462Z,46.03
2023-02-11T16:16:49.817Z,47.00
2023-02-11T16:19:19.081Z,39.33
2023-02-11T16:21:46.300Z,45.40
2023-02-11T16:24:19.111Z,47.10
2023-02-11T16:26:48.889Z,44.40
2023-02-11T16:29:19.824Z,45.70
2023-02-11T16:31:47.831Z,43.55
2023-02-11T16:34:16.908Z,44.03
2023-02-11T16:36:43.955Z,48.90
2023-02-11T16:39:11.518Z,50.43
2023-02-11T16:41:38.352Z,50.50
2023-02-11T16:44:05.450Z,50.03
2023-02-11T16:46:34.160Z,49.92
2023-02-11T16:49:09.822Z,37.90
2023-02-11T16:51:39.155Z,41.13
2023-02-11T16:54:06.028Z,40.78
2023-02-11T16:56:32.798Z,43.63
2023-02-11T16:58:59.566Z,39.75
2023-02-11T17:01:26.412Z,39.72
2023-02-11T17:03:55.040Z,46.73
2023-02-11T17:06:21.750Z,44.55
2023-02-11T17:08:48.491Z,66.13
2023-02-11T17:11:15.216Z,56.25
2023-02-11T17:13:41.946Z,36.33
2023-02-11T17:16:16.439Z,40.03
2023-02-11T17:18:43.278Z,40.63
2023-02-11T17:21:11.546Z,41.88
2023-02-11T17:23:38.340Z,42.58
2023-02-11T17:26:05.914Z,42.67
2023-02-11T17:28:33.090Z,44.10
2023-02-11T17:31:00.126Z,40.75
2023-02-11T17:33:26.861Z,47.00
2023-02-11T17:35:53.943Z,44.65
2023-02-11T17:38:22.270Z,40.70
2023-02-11T17:40:57.329Z,38.17
2023-02-11T17:43:24.229Z,36.95
2023-02-11T17:45:51.405Z,36.15
2023-02-11T17:48:18.296Z,37.22
2023-02-11T17:50:45.025Z,32.90
2023-02-11T17:53:11.775Z,39.63
2023-02-11T17:55:40.103Z,35.15
2023-02-11T17:58:07.344Z,35.40
2023-02-11T18:00:34.214Z,36.08
2023-02-11T18:03:00.877Z,36.13
2023-02-11T18:05:27.578Z,34.33
2023-02-11T18:07:55.119Z,35.63
2023-02-11T18:10:21.968Z,41.53
2023-02-11T18:12:50.167Z,37.47
2023-02-11T18:15:17.106Z,42.95
2023-02-11T18:17:43.932Z,38.33
2023-02-11T18:20:11.454Z,43.45
2023-02-11T18:22:38.198Z,41.92
2023-02-11T18:25:06.303Z,48.53
2023-02-11T18:27:33.171Z,46.83
2023-02-11T18:30:01.280Z,74.50
2023-02-11T18:32:27.960Z,62.28
2023-02-11T18:34:54.627Z,47.33
2023-02-11T18:37:21.282Z,49.55
2023-02-11T18:39:47.979Z,48.88
2023-02-11T18:42:14.659Z,48.07
2023-02-11T18:44:41.360Z,50.58
2023-02-11T18:47:09.503Z,49.95
2023-02-11T18:49:36.244Z,44.17
2023-02-11T18:52:03.185Z,49.45
2023-02-11T18:54:29.926Z,47.30
2023-02-11T18:56:56.585Z,48.13
2023-02-11T18:59:23.296Z,45.15
2023-02-11T19:01:50.023Z,44.20
2023-02-11T19:04:18.168Z,47.17
2023-02-11T19:06:48.032Z,46.43
2023-02-11T19:09:16.565Z,47.05
2023-02-11T19:11:43.500Z,42.25
2023-02-11T19:14:10.905Z,46.67
2023-02-11T19:16:38.395Z,45.50
2023-02-11T19:19:05.715Z,38.83
2023-02-11T19:21:34.120Z,38.22
2023-02-11T19:24:00.981Z,44.13
2023-02-11T19:26:28.630Z,43.35
2023-02-11T19:28:56.050Z,40.88
2023-02-11T19:31:22.819Z,40.20
2023-02-11T19:33:49.658Z,41.05
2023-02-11T19:36:16.317Z,43.67
2023-02-11T19:38:45.254Z,43.90
2023-02-11T19:41:12.602Z,45.53
2023-02-11T19:43:40.289Z,46.87
2023-02-11T19:46:07.030Z,47.47
2023-02-11T19:48:33.798Z,45.17
2023-02-11T19:51:07.754Z,38.30
2023-02-11T19:53:34.732Z,44.38
2023-02-11T19:56:03.243Z,40.13
2023-02-11T19:58:29.906Z,39.40
2023-02-11T20:01:05.432Z,72.55
2023-02-11T20:03:32.391Z,61.90
2023-02-11T20:05:59.096Z,46.33
2023-02-11T20:08:25.906Z,42.50
2023-02-11T20:10:52.569Z,46.83
2023-02-11T20:13:20.633Z,42.92
2023-02-11T20:15:47.552Z,41.13
2023-02-11T20:18:14.649Z,45.28
2023-02-11T20:20:41.360Z,42.27
2023-02-11T20:23:08.099Z,40.60
2023-02-11T20:25:38.428Z,39.33
2023-02-11T20:28:05.112Z,39.20
2023-02-11T20:30:33.367Z,42.47
2023-02-11T20:33:00.133Z,36.67
2023-02-11T20:35:26.813Z,45.85
2023-02-11T20:37:53.555Z,45.80
2023-02-11T20:40:20.472Z,44.00
2023-02-11T20:42:47.237Z,50.40
2023-02-11T20:45:14.077Z,38.47
2023-02-11T20:47:42.151Z,47.83
2023-02-11T20:50:09.690Z,85.60
2023-02-11T20:52:36.375Z,87.60
2023-02-11T20:55:03.259Z,88.38
2023-02-11T20:57:29.960Z,79.33
2023-02-11T20:59:56.637Z,85.35
2023-02-11T21:02:24.845Z,85.65
2023-02-11T21:04:53.156Z,75.95
2023-02-11T21:07:19.955Z,75.60
2023-02-11T21:09:46.734Z,73.27
2023-02-11T21:12:13.436Z,69.95
2023-02-11T21:14:40.150Z,59.00
2023-02-11T21:17:07.024Z,61.40
2023-02-11T21:19:33.781Z,60.85
2023-02-11T21:22:01.844Z,55.40
2023-02-11T21:24:28.660Z,57.40
2023-02-11T21:26:55.343Z,59.95
2023-02-11T21:29:22.130Z,65.88
2023-02-11T21:31:48.944Z,56.22
2023-02-11T21:34:15.652Z,64.97
2023-02-11T21:36:42.327Z,56.45
2023-02-11T21:39:10.445Z,57.15
2023-02-11T21:41:37.225Z,59.92
2023-02-11T21:44:04.131Z,54.22
2023-02-11T21:46:31.772Z,57.83
2023-02-11T21:48:58.511Z,58.80
2023-02-11T21:51:26.222Z,48.65
2023-02-11T21:53:54.088Z,49.40
2023-02-11T21:56:22.888Z,53.75
2023-02-11T21:58:53.050Z,44.17
2023-02-11T22:01:22.209Z,54.88
2023-02-11T22:03:49.343Z,55.10
2023-02-11T22:06:18.142Z,64.50
2023-02-11T22:08:44.922Z,58.75
2023-02-11T22:11:12.869Z,64.43
2023-02-11T22:13:42.253Z,55.42
2023-02-11T22:16:12.167Z,53.10
2023-02-11T22:18:39.776Z,62.42
2023-02-11T22:21:08.583Z,49.85
2023-02-11T22:23:35.815Z,50.23
2023-02-11T22:26:09.457Z,48.00
2023-02-11T22:28:36.486Z,48.63
2023-02-11T22:31:05.377Z,49.58
2023-02-11T22:33:32.127Z,52.80
2023-02-11T22:35:59.749Z,53.50
2023-02-11T22:38:27.068Z,46.35
2023-02-11T22:40:53.758Z,48.88
2023-02-11T22:43:20.672Z,41.80
2023-02-11T22:45:47.464Z,45.88
2023-02-11T22:48:15.792Z,44.53
2023-02-11T22:50:42.652Z,45.22
2023-02-11T22:53:09.336Z,43.42
2023-02-11T22:55:37.035Z,45.33
2023-02-11T22:58:03.952Z,49.70
2023-02-11T23:00:31.875Z,44.73
2023-02-11T23:02:58.943Z,39.58
2023-02-11T23:05:27.063Z,44.80
2023-02-11T23:07:53.780Z,43.22
2023-02-11T23:10:21.610Z,40.63
2023-02-11T23:12:48.352Z,38.20
2023-02-11T23:15:15.292Z,41.38
2023-02-11T23:17:42.077Z,41.25
2023-02-11T23:20:09.893Z,37.85
2023-02-11T23:22:38.083Z,39.13
2023-02-11T23:25:05.419Z,44.97
2023-02-11T23:27:32.145Z,40.10
2023-02-11T23:29:59.102Z,41.80
2023-02-11T23:32:26.163Z,40.53
2023-02-11T23:34:52.844Z,38.75
2023-02-11T23:37:19.555Z,42.60
2023-02-11T23:39:47.700Z,43.00
2023-02-11T23:42:14.418Z,49.58
2023-02-11T23:44:41.114Z,42.63
2023-02-11T23:47:07.853Z,51.60
2023-02-11T23:49:34.534Z,46.20
2023-02-11T23:52:01.251Z,41.28
2023-02-11T23:54:28.121Z,45.28
2023-02-11T23:56:56.216Z,40.78
2023-02-11T23:59:22.885Z,41.10
